Карточка аэропорта USTR

Внимание!
Информация на этой странице в стадии наполнения.
Если вы не увидели какой-то информации, или заметили неточность - пожалуйста сообщите нам!
Спасибо!
Команда RU-STAFF
Название аэропортаРощино
Название аэропорта (англ.)Roshschino
Превышение378 ft. (115.2 m.)
Координаты57°10.098', 65°19.002'
Высота перехода3000ft
Эшелон переходаQNH⩾1013hPa:FL040; QNH⩾977hPa:FL050; QNH⩽977hPa:FL060
Коды ответчика5101-5137
Зона ОрВДТюмень РПИ (USTV)
Данные METARUSTR 290300Z 33003MPS 300V360 CAVOK 05/M11 Q1015 R30/090065 R03/090065 NOSIG
Проноз погоды (TAF)USTR 290133Z 2903/3003 33005G12MPS 9999 SCT020 TEMPO 2903/2906 29003MPS TEMPO 2906/2915 34014MPS BECMG 2915/2916 01003G09MPS TEMPO 2916/3003 VRB01MPS
NOTAMshow/hide NOTAM
AWOS   TABLE

Информация о ВПП

ВПП Длина ВПП (м.) Покрытие Курс ВПП Частота ILS
122704Асфальтобетон121 
302704Асфальтобетон301 
033003Асфальтобетон34108.3
213003Асфальтобетон214110.7

Диспетчерские позиции

Позывной Наименование органа УВД Частота
USTR_TWRТюмень-Старт118.200
USTR_R_APPТюмень-Круг126.100
USTR_GNDТюмень-Руление119.000



Спутниковое изображение